Time;durP1;ratioP1;P1;durP2;ratioP2;P2;SDS_P1;SDS_P2;PMS_P1;PMS_P2;Temp;Humidity;BMP_temperature;BMP_pressure;BME280_temperature;BME280_humidity;BME280_pressure;Samples;Min_cycle;Max_cycle;Signal;HPM_P1;HPM_P2
2022/08/10 00:01:28;;;;;;;13.25;12.05;;;;;;;21.28;86.34;100829.52;1631993;86;20848;-91
2022/08/10 00:03:55;;;;;;;14.28;11.93;;;;;;;21.26;86.41;100828.84;1631743;87;21272;-92
2022/08/10 00:06:23;;;;;;;13.80;11.78;;;;;;;21.24;86.56;100825.99;1632549;86;20951;-91
2022/08/10 00:08:49;;;;;;;14.45;11.90;;;;;;;21.22;86.70;100828.81;1619577;87;21414;-91
2022/08/10 00:11:16;;;;;;;13.93;12.15;;;;;;;21.19;86.92;100826.47;1629113;86;20961;-91
2022/08/10 00:13:43;;;;;;;15.08;13.38;;;;;;;21.16;87.17;100828.59;1630261;86;21413;-89
2022/08/10 00:16:10;;;;;;;13.90;12.53;;;;;;;21.14;87.38;100832.73;1630886;87;21241;-91
2022/08/10 00:18:37;;;;;;;14.43;12.65;;;;;;;21.12;87.43;100826.72;1628001;86;20964;-90
2022/08/10 00:21:06;;;;;;;13.88;12.78;;;;;;;21.11;87.41;100829.89;1614494;87;21082;-91
2022/08/10 00:23:34;;;;;;;14.40;13.05;;;;;;;21.08;87.42;100828.88;1631543;87;20924;-89
2022/08/10 00:26:00;;;;;;;13.43;12.18;;;;;;;21.06;87.42;100823.37;1634530;86;21021;-90
2022/08/10 00:28:27;;;;;;;13.32;12.20;;;;;;;21.02;87.36;100832.16;1632881;87;21099;-92
2022/08/10 00:30:55;;;;;;;13.90;12.53;;;;;;;21.01;87.34;100828.31;1629388;86;20913;-91
2022/08/10 00:33:22;;;;;;;14.38;11.80;;;;;;;20.97;87.46;100827.80;1633799;86;20937;-90
2022/08/10 00:35:49;;;;;;;16.30;12.53;;;;;;;20.96;87.59;100823.44;1630008;87;21000;-91
2022/08/10 00:38:15;;;;;;;13.68;12.33;;;;;;;20.94;87.81;100829.42;1630284;86;21007;-92
2022/08/10 00:40:42;;;;;;;15.53;13.98;;;;;;;20.91;87.80;100825.74;1632574;86;21172;-90
2022/08/10 00:43:08;;;;;;;13.20;11.95;;;;;;;20.89;87.96;100827.72;1638588;86;20927;-90
2022/08/10 00:45:35;;;;;;;13.32;12.13;;;;;;;20.88;88.27;100832.23;1634573;86;21101;-91
2022/08/10 00:48:01;;;;;;;14.00;12.73;;;;;;;20.87;88.30;100836.38;1633034;86;21070;-91
2022/08/10 00:50:28;;;;;;;14.70;13.22;;;;;;;20.84;88.38;100840.19;1631563;86;21018;-91
2022/08/10 00:52:56;;;;;;;15.38;13.93;;;;;;;20.83;88.61;100832.33;1633711;86;21091;-91
2022/08/10 00:55:22;;;;;;;13.30;11.97;;;;;;;20.82;88.69;100830.67;1639812;87;21008;-89
2022/08/10 00:57:49;;;;;;;14.20;12.78;;;;;;;20.81;88.88;100837.84;1635788;86;21146;-90
2022/08/10 01:00:16;;;;;;;15.45;12.95;;;;;;;20.80;89.23;100837.98;1644950;87;20868;-91
2022/08/10 01:03:38;;;;;;;15.20;13.80;;;;;;;20.80;89.40;100837.98;1889010;74;22227;-91
2022/08/10 01:06:28;;;;;;;17.15;13.03;;;;;;;20.76;89.55;100844.10;1864447;77;20923;-90
2022/08/10 01:09:27;;;;;;;15.40;13.90;;;;;;;20.75;89.58;100851.77;1863874;77;21123;-91
2022/08/10 01:12:06;;;;;;;12.75;11.65;;;;;;;20.72;89.76;100845.89;1861344;76;20950;-93
2022/08/10 01:14:52;;;;;;;13.72;12.30;;;;;;;20.69;89.91;100842.55;1863946;77;20915;-92
2022/08/10 01:17:36;;;;;;;14.40;13.10;;;;;;;20.70;90.11;100842.07;1864117;77;20938;-92
2022/08/10 01:20:11;;;;;;;13.43;12.23;;;;;;;20.68;90.06;100844.88;1864232;77;20966;-91
2022/08/10 01:23:07;;;;;;;14.00;12.75;;;;;;;20.68;90.20;100844.05;1861990;77;21138;-91
2022/08/10 01:26:17;;;;;;;14.73;12.68;;;;;;;20.68;90.12;100844.05;1864137;77;20958;-94
2022/08/10 01:29:17;;;;;;;13.48;12.25;;;;;;;20.66;90.03;100847.36;1864094;77;20962;-93
2022/08/10 01:31:48;;;;;;;14.93;13.53;;;;;;;20.63;89.86;100848.50;1861013;77;20934;-92
2022/08/10 01:34:30;;;;;;;14.23;12.82;;;;;;;20.60;89.75;100846.63;1862645;77;20879;-93
2022/08/10 01:37:04;;;;;;;14.20;12.70;;;;;;;20.58;89.67;100846.77;1862141;77;21439;-93
2022/08/10 01:39:34;;;;;;;;;;;;;;;20.56;89.76;100837.22;1864609;77;21408;-92
2022/08/10 01:42:00;;;;;;;17.50;14.25;;;;;;;20.54;89.89;100849.86;1861960;77;20114;-92
2022/08/10 01:44:36;;;;;;;14.13;12.70;;;;;;;20.50;89.88;100843.52;1862352;77;20919;-93
2022/08/10 01:50:02;;;;;;;14.80;13.40;;;;;;;20.45;89.98;100845.80;1861772;77;21271;-93
2022/08/10 01:52:30;;;;;;;13.15;11.95;;;;;;;20.44;90.07;100848.61;1861553;77;20863;-94
2022/08/10 01:54:57;;;;;;;15.83;14.28;;;;;;;20.41;90.19;100844.42;1862104;76;20958;-94
2022/08/10 01:57:25;;;;;;;14.60;13.30;;;;;;;20.40;90.25;100840.56;1861858;77;20955;-95
2022/08/10 01:59:53;;;;;;;14.90;13.50;;;;;;;20.40;90.25;100841.90;1861779;77;20840;-92
2022/08/10 02:02:21;;;;;;;15.25;13.60;;;;;;;20.39;90.23;100838.91;1857817;77;21921;-93
2022/08/10 02:04:48;;;;;;;14.80;13.28;;;;;;;20.37;90.19;100843.04;1850869;77;21327;-93
2022/08/10 02:07:18;;;;;;;13.75;12.23;;;;;;;20.35;90.14;100840.19;1851996;77;20949;-92
2022/08/10 02:09:48;;;;;;;14.03;12.50;;;;;;;20.34;90.26;100839.83;1852215;76;21320;-93
2022/08/10 02:12:19;;;;;;;15.32;13.62;;;;;;;20.33;90.26;100835.00;1827097;77;20937;-92
2022/08/10 02:14:54;;;;;;;13.30;12.00;;;;;;;20.33;90.25;100841.66;1852833;77;21202;-93
2022/08/10 02:17:26;;;;;;;12.95;11.73;;;;;;;20.33;90.16;100836.83;1851642;77;21296;-94
2022/08/10 02:19:55;;;;;;;14.07;12.50;;;;;;;20.32;90.14;100839.14;1851361;77;20976;-94
2022/08/10 02:22:22;;;;;;;13.50;12.40;;;;;;;20.31;90.10;100838.30;1852475;77;20920;-91
2022/08/10 02:24:49;;;;;;;11.78;10.88;;;;;;;20.30;90.19;100836.64;1852355;77;20896;-91
2022/08/10 02:27:17;;;;;;;13.35;11.97;;;;;;;20.30;90.21;100832.65;1825529;77;21206;-90
2022/08/10 02:29:44;;;;;;;14.60;13.30;;;;;;;20.27;90.23;100830.27;1850856;77;20992;-93
2022/08/10 02:32:10;;;;;;;13.43;12.13;;;;;;;20.28;90.30;100842.61;1850572;77;20877;-90
2022/08/10 02:34:38;;;;;;;15.10;13.03;;;;;;;20.28;90.32;100848.77;1850771;77;21412;-91
2022/08/10 02:37:06;;;;;;;13.38;12.15;;;;;;;20.29;90.26;100842.94;1850845;77;20968;-94
2022/08/10 02:39:37;;;;;;;13.22;12.18;;;;;;;20.29;90.23;100843.77;1850547;76;21246;-93
2022/08/10 02:42:26;;;;;;;14.33;12.98;;;;;;;20.31;90.24;100848.13;1817228;79;21461;-94
2022/08/10 02:45:04;;;;;;;13.05;11.80;;;;;;;20.32;90.24;100845.33;1817283;79;20904;-93
2022/08/10 02:47:45;;;;;;;14.73;12.37;;;;;;;20.34;90.13;100849.98;1816952;78;20919;-93
2022/08/10 02:50:29;;;;;;;14.33;12.80;;;;;;;20.37;90.01;100850.20;1817434;79;20876;-93
2022/08/10 02:53:04;;;;;;;12.50;11.55;;;;;;;20.38;89.91;100849.20;1817339;79;21837;-92
2022/08/10 02:55:47;;;;;;;13.85;12.18;;;;;;;20.40;89.75;100856.55;1817298;79;20908;-92
2022/08/10 02:58:17;;;;;;;13.15;11.55;;;;;;;20.41;89.80;100861.73;1816867;79;20854;-92
2022/08/10 03:00:51;;;;;;;12.73;11.55;;;;;;;20.41;89.58;100863.06;1816986;78;21007;-94
2022/08/10 03:03:20;;;;;;;12.77;11.53;;;;;;;20.44;89.62;100868.08;1800006;79;21000;-92
2022/08/10 03:05:50;;;;;;;13.68;12.45;;;;;;;20.46;89.42;100865.28;1790405;80;21224;-93
2022/08/10 03:08:21;;;;;;;14.07;12.73;;;;;;;20.49;89.36;100871.63;1790081;78;20993;-94
2022/08/10 03:10:48;;;;;;;13.10;11.95;;;;;;;20.49;89.49;100861.80;1790162;80;20874;-92
2022/08/10 03:13:15;;;;;;;13.85;12.47;;;;;;;20.52;89.20;100866.48;1816229;77;20955;-92
2022/08/10 03:15:42;;;;;;;17.50;13.38;;;;;;;20.54;89.18;100865.34;1836136;77;20874;-92
2022/08/10 03:18:08;;;;;;;13.78;12.65;;;;;;;20.56;88.89;100869.20;1836579;78;21215;-91
2022/08/10 03:20:39;;;;;;;15.03;13.62;;;;;;;20.58;88.79;100867.25;1836218;77;20906;-91
2022/08/10 03:23:13;;;;;;;14.00;12.80;;;;;;;20.58;88.66;100864.09;1808534;78;20919;-93
2022/08/10 03:25:40;;;;;;;13.28;12.15;;;;;;;20.60;88.54;100868.78;1835637;77;21380;-93
2022/08/10 03:28:06;;;;;;;13.22;12.00;;;;;;;20.63;88.29;100875.16;1836046;77;20911;-92
2022/08/10 03:30:34;;;;;;;14.45;13.13;;;;;;;20.64;88.04;100867.48;1835858;77;21214;-89
2022/08/10 03:33:03;;;;;;;14.03;12.73;;;;;;;20.66;88.01;100871.34;1835926;77;20902;-88
2022/08/10 03:35:30;;;;;;;15.20;13.68;;;;;;;;;;1836209;77;20871;-89
2022/08/10 03:37:58;;;;;;;14.45;13.13;;;;;;;20.69;87.66;100877.19;1809068;78;20930;-89
2022/08/10 03:40:27;;;;;;;14.65;13.20;;;;;;;20.72;87.54;100874.74;1835700;77;20962;-90
2022/08/10 03:42:54;;;;;;;13.78;12.37;;;;;;;20.73;87.37;100874.23;1833922;77;21823;-90
2022/08/10 03:45:20;;;;;;;14.13;12.65;;;;;;;20.75;87.26;100875.76;1835858;77;20820;-92
2022/08/10 03:47:47;;;;;;;14.03;12.65;;;;;;;20.78;87.18;100874.61;1836217;78;20927;-92
2022/08/10 03:50:13;;;;;;;16.12;14.43;;;;;;;20.80;87.01;100870.80;1835713;77;20864;-91
2022/08/10 03:52:40;;;;;;;15.58;14.07;;;;;;;20.82;86.55;100874.16;1835777;77;20839;-89
2022/08/10 03:55:07;;;;;;;15.43;13.85;;;;;;;20.82;86.40;100867.48;1836139;77;21098;-90
2022/08/10 03:57:34;;;;;;;14.47;12.98;;;;;;;20.84;86.31;100867.34;1835812;76;20942;-91
2022/08/10 04:00:01;;;;;;;17.73;14.58;;;;;;;20.85;86.32;100867.20;1835917;77;20840;-91
2022/08/10 04:02:27;;;;;;;15.45;13.93;;;;;;;20.87;86.13;100871.02;1840479;75;20880;-92
2022/08/10 04:04:53;;;;;;;16.07;14.25;;;;;;;20.86;85.91;100867.53;1858937;75;20901;-91
2022/08/10 04:07:20;;;;;;;14.78;13.32;;;;;;;20.87;85.92;100863.86;1852577;77;21219;-90
2022/08/10 04:09:46;;;;;;;15.78;14.18;;;;;;;20.90;85.89;100869.41;1852605;77;20901;-91
2022/08/10 04:12:14;;;;;;;17.70;15.32;;;;;;;20.94;85.68;100865.41;1852723;76;20811;-91
2022/08/10 04:14:42;;;;;;;16.82;15.05;;;;;;;20.96;85.54;100866.61;1852298;77;20996;-90
2022/08/10 04:17:08;;;;;;;15.53;14.05;;;;;;;20.97;85.35;100860.30;1852550;77;20972;-91
2022/08/10 04:19:42;;;;;;;16.55;14.63;;;;;;;20.99;85.22;100859.15;1852646;76;21075;-92
2022/08/10 04:22:17;;;;;;;14.83;13.30;;;;;;;21.02;85.05;100863.33;1852421;77;20971;-91
2022/08/10 04:24:46;;;;;;;17.30;15.53;;;;;;;21.03;84.85;100862.33;1826915;77;20858;-92
2022/08/10 04:27:13;;;;;;;15.98;14.25;;;;;;;21.04;84.82;100855.52;1852212;77;20964;-90
2022/08/10 04:29:40;;;;;;;16.12;14.70;;;;;;;21.07;84.69;100859.19;1852477;77;20968;-90
2022/08/10 04:32:07;;;;;;;14.95;13.40;;;;;;;21.08;84.58;100854.72;1852462;77;21062;-91
2022/08/10 04:34:33;;;;;;;18.30;14.85;;;;;;;21.11;84.54;100853.89;1852241;76;20929;-91
2022/08/10 04:37:03;;;;;;;20.32;14.28;;;;;;;21.14;84.58;100855.41;1852350;77;20893;-91
2022/08/10 04:39:30;;;;;;;17.00;15.15;;;;;;;21.19;84.50;100857.61;1852459;77;20854;-91
2022/08/10 04:41:56;;;;;;;16.48;14.78;;;;;;;21.22;84.30;100847.98;1852192;77;20850;-91
2022/08/10 04:44:23;;;;;;;20.92;16.20;;;;;;;21.26;84.13;100851.52;1852349;77;21015;-93
2022/08/10 04:46:50;;;;;;;15.13;13.72;;;;;;;21.31;84.02;100850.53;1852203;77;20897;-93
2022/08/10 04:49:16;;;;;;;16.67;15.18;;;;;;;21.38;84.00;100847.25;1852191;77;20874;-92
2022/08/10 04:51:43;;;;;;;14.58;13.38;;;;;;;21.45;83.89;100843.81;1826328;77;20938;-94
2022/08/10 04:54:10;;;;;;;15.38;13.75;;;;;;;21.56;83.60;100845.38;1852365;77;20881;-93
2022/08/10 04:56:37;;;;;;;14.38;12.95;;;;;;;21.68;83.29;100845.47;1852253;77;21008;-93
2022/08/10 04:59:06;;;;;;;14.33;12.93;;;;;;;21.81;82.81;100850.37;1851902;77;20968;-93
2022/08/10 05:01:33;;;;;;;17.70;15.85;;;;;;;21.92;82.29;100858.10;1852386;77;20819;-93
2022/08/10 05:04:00;;;;;;;15.32;13.50;;;;;;;22.07;81.94;100847.62;1852460;77;20889;-93
2022/08/10 05:06:26;;;;;;;14.63;13.20;;;;;;;22.23;81.40;100857.58;1838145;77;21040;-93
2022/08/10 05:08:53;;;;;;;15.10;13.62;;;;;;;22.42;80.77;100859.63;1837694;77;21069;-93
2022/08/10 05:11:20;;;;;;;15.45;13.93;;;;;;;22.61;79.92;100851.31;1837719;77;20957;-93
2022/08/10 05:13:46;;;;;;;15.68;13.85;;;;;;;22.84;78.83;100853.34;1837943;77;20884;-93
2022/08/10 05:16:13;;;;;;;14.68;13.30;;;;;;;23.04;77.71;100855.21;1837085;77;20871;-92
2022/08/10 05:18:39;;;;;;;14.03;12.70;;;;;;;23.28;76.89;100862.39;1836290;77;20954;-93
2022/08/10 05:21:07;;;;;;;15.50;12.85;;;;;;;23.62;75.87;100856.78;1836270;77;21052;-93
2022/08/10 05:23:33;;;;;;;14.68;12.95;;;;;;;24.13;74.40;100856.46;1835816;78;20922;-93
2022/08/10 05:26:01;;;;;;;16.67;12.98;;;;;;;24.64;72.76;100856.86;1836506;77;21293;-92
2022/08/10 05:29:47;;;;;;;13.55;12.45;;;;;;;25.33;69.31;100852.77;1817624;79;22606;-94
2022/08/10 05:32:13;;;;;;;13.28;12.07;;;;;;;25.68;68.23;100846.85;1790927;80;21338;-91
2022/08/10 05:34:42;;;;;;;14.63;13.05;;;;;;;26.07;66.33;100852.47;1790780;80;21194;-93
2022/08/10 05:37:08;;;;;;;13.50;11.85;;;;;;;26.38;64.72;100845.48;1790644;80;20919;-93
2022/08/10 05:39:36;;;;;;;15.08;12.45;;;;;;;26.70;63.68;100844.69;1760217;80;21010;-94
2022/08/10 05:42:03;;;;;;;12.93;11.57;;;;;;;26.98;62.79;100843.39;1790340;80;21428;-93
2022/08/10 05:44:30;;;;;;;12.68;11.63;;;;;;;27.31;61.35;100834.25;1790738;80;21417;-93
2022/08/10 05:46:56;;;;;;;11.70;10.80;;;;;;;27.66;60.67;100836.43;1790623;80;21230;-93
2022/08/10 05:49:23;;;;;;;11.08;10.28;;;;;;;27.97;59.64;100836.50;1760181;80;20861;-91
2022/08/10 05:51:50;;;;;;;12.98;11.43;;;;;;;28.25;58.53;100828.80;1790340;80;20924;-92
2022/08/10 05:54:17;;;;;;;13.10;11.93;;;;;;;28.59;57.54;100831.92;1790555;80;20979;-92
2022/08/10 05:56:45;;;;;;;11.33;10.23;;;;;;;28.93;56.89;100829.55;1760171;80;20828;-92
2022/08/10 05:59:14;;;;;;;11.20;10.30;;;;;;;29.37;55.86;100831.31;1792180;80;21132;-91
2022/08/10 06:01:44;;;;;;;12.60;11.15;;;;;;;29.83;54.36;100818.70;1792262;80;20878;-93
2022/08/10 06:04:18;;;;;;;13.68;12.28;;;;;;;30.26;53.08;100828.38;1790476;80;21464;-92
2022/08/10 06:06:46;;;;;;;12.13;11.03;;;;;;;30.60;51.77;100831.73;1790411;80;21425;-92
2022/08/10 06:09:14;;;;;;;14.23;11.95;;;;;;;30.84;50.76;100833.30;1790550;80;20916;-92
2022/08/10 06:11:40;;;;;;;12.63;11.60;;;;;;;30.96;50.17;100826.98;1790199;80;21100;-93
2022/08/10 06:16:52;;;;;;;12.70;11.75;;;;;;;31.24;49.30;100828.41;1790506;80;20891;-94
2022/08/10 06:19:18;;;;;;;13.22;11.93;;;;;;;31.45;49.00;100835.30;1790599;80;20975;-95
2022/08/10 06:21:45;;;;;;;12.70;11.73;;;;;;;31.69;48.34;100818.66;1790642;80;20927;-93
2022/08/10 06:24:12;;;;;;;13.00;11.80;;;;;;;31.96;47.51;100824.56;1790548;80;20908;-93
2022/08/10 06:26:39;;;;;;;13.48;12.28;;;;;;;32.14;46.91;100818.30;1791466;80;20896;-95
2022/08/10 06:29:08;;;;;;;12.75;11.80;;;;;;;32.32;46.84;100809.27;1787599;80;21327;-93
2022/08/10 06:31:42;;;;;;;13.15;11.93;;;;;;;32.48;46.29;100806.95;1785535;80;20853;-92
2022/08/10 06:34:10;;;;;;;13.00;11.85;;;;;;;32.66;45.75;100806.06;1785626;80;21026;-90
2022/08/10 06:36:36;;;;;;;12.25;11.33;;;;;;;32.80;45.23;100805.62;1785811;80;21095;-94
2022/08/10 06:39:03;;;;;;;13.38;12.25;;;;;;;33.03;44.96;100806.69;1785298;80;20931;-94
2022/08/10 06:41:33;;;;;;;12.00;11.03;;;;;;;33.30;44.30;100809.77;1785417;80;20912;-93
2022/08/10 06:44:04;;;;;;;12.53;11.55;;;;;;;33.37;43.81;100802.84;1784537;80;20904;-92
2022/08/10 06:46:33;;;;;;;13.48;12.20;;;;;;;33.30;43.68;100800.79;1785154;80;20946;-94
2022/08/10 06:49:00;;;;;;;13.35;12.18;;;;;;;33.20;43.78;100804.12;1754753;80;21142;-92
2022/08/10 06:51:31;;;;;;;14.53;12.25;;;;;;;33.21;43.97;100801.14;1784199;80;20967;-93
2022/08/10 06:54:05;;;;;;;13.30;12.20;;;;;;;33.34;43.55;100799.25;1785110;80;20920;-94
2022/08/10 06:56:37;;;;;;;13.22;11.85;;;;;;;33.59;43.53;100803.06;1784762;80;20908;-93
2022/08/10 06:59:28;;;;;;;13.55;12.00;;;;;;;33.88;43.08;100798.47;1783156;80;20936;-91
2022/08/10 07:02:05;;;;;;;12.70;11.43;;;;;;;34.19;41.97;100799.08;1784147;80;21806;-92
2022/08/10 07:04:47;;;;;;;12.35;11.25;;;;;;;34.46;41.88;100797.39;1784908;80;20892;-95
2022/08/10 07:07:17;;;;;;;13.32;12.33;;;;;;;34.82;41.02;100802.08;1784572;80;20924;-94
2022/08/10 07:09:45;;;;;;;14.75;12.20;;;;;;;34.96;40.40;100804.46;1784731;80;20857;-92
2022/08/10 07:12:14;;;;;;;12.18;11.10;;;;;;;34.88;40.00;100798.88;1785094;80;20904;-95
2022/08/10 07:14:43;;;;;;;13.20;12.13;;;;;;;34.70;40.19;100800.52;1784714;80;21243;-94
2022/08/10 07:17:16;;;;;;;12.65;11.55;;;;;;;34.56;40.37;100795.36;1784518;80;21441;-94
2022/08/10 07:19:46;;;;;;;12.37;11.18;;;;;;;34.48;40.53;100795.77;1783785;80;20892;-92
2022/08/10 07:22:13;;;;;;;12.10;11.03;;;;;;;34.58;40.95;100792.41;1784678;80;20892;-93
2022/08/10 07:24:39;;;;;;;12.35;11.35;;;;;;;34.73;40.48;100791.83;1729393;80;20939;-95
2022/08/10 07:27:06;;;;;;;10.35;9.50;;;;;;;34.90;40.41;100795.38;1784595;80;21158;-94
2022/08/10 07:29:32;;;;;;;13.20;11.95;;;;;;;35.16;40.16;100798.51;1778923;80;20920;-93
2022/08/10 07:31:59;;;;;;;11.83;10.53;;;;;;;35.42;38.72;100804.59;1754699;80;20896;-94
2022/08/10 07:34:26;;;;;;;11.75;10.80;;;;;;;35.54;38.78;100800.36;1776460;80;20892;-93
2022/08/10 07:36:53;;;;;;;11.70;10.58;;;;;;;35.67;38.34;100804.65;1776277;80;21417;-94
2022/08/10 07:39:19;;;;;;;11.70;10.65;;;;;;;35.76;38.36;100798.20;1776472;80;21230;-95
2022/08/10 07:41:47;;;;;;;11.35;10.25;;;;;;;35.93;38.09;100787.17;1776325;80;20873;-94
2022/08/10 07:44:16;;;;;;;12.13;10.45;;;;;;;36.06;37.95;100794.95;1776675;80;20937;-93
2022/08/10 07:46:46;;;;;;;11.80;10.55;;;;;;;36.02;37.38;100795.18;1776480;80;20932;-95
2022/08/10 07:49:20;;;;;;;12.50;11.30;;;;;;;35.96;37.45;100786.68;1776437;80;20940;-91
2022/08/10 07:51:50;;;;;;;13.18;11.88;;;;;;;35.99;37.40;100794.34;1776089;80;21106;-93
2022/08/10 07:54:18;;;;;;;10.90;9.80;;;;;;;36.05;37.19;100783.22;1776318;80;21461;-93
2022/08/10 07:56:48;;;;;;;12.60;11.25;;;;;;;36.13;37.28;100782.48;1776371;80;20880;-90
2022/08/10 07:59:19;;;;;;;12.03;10.98;;;;;;;36.21;37.15;100786.13;1778196;79;21062;-93
2022/08/10 08:01:52;;;;;;;12.60;11.60;;;;;;;36.29;36.92;100782.38;1779048;80;20865;-92
2022/08/10 08:04:21;;;;;;;14.85;12.53;;;;;;;36.43;36.15;100780.03;1778581;80;21213;-89
2022/08/10 08:06:48;;;;;;;11.90;10.90;;;;;;;36.52;35.93;100783.11;1778448;79;20904;-91
2022/08/10 08:09:14;;;;;;;12.78;11.57;;;;;;;36.66;36.12;100787.61;1778013;80;20845;-90
2022/08/10 08:11:43;;;;;;;15.00;11.10;;;;;;;36.81;35.91;100784.17;1777129;80;21325;-90
2022/08/10 08:14:10;;;;;;;12.80;11.38;;;;;;;36.99;35.90;100781.00;1776657;80;20944;-92
2022/08/10 08:16:41;;;;;;;12.58;11.28;;;;;;;37.17;35.16;100781.12;1776507;80;21223;-92
2022/08/10 08:19:08;;;;;;;13.50;12.28;;;;;;;37.24;35.03;100777.62;1776269;80;20991;-94
2022/08/10 08:21:34;;;;;;;13.45;11.45;;;;;;;37.37;34.84;100781.77;1776775;80;20920;-94
2022/08/10 08:24:01;;;;;;;14.15;11.73;;;;;;;37.53;34.63;100777.17;1776733;80;20901;-92
2022/08/10 08:26:27;;;;;;;12.55;11.28;;;;;;;37.73;34.06;100771.81;1776920;80;20967;-95
2022/08/10 08:28:54;;;;;;;14.60;10.45;;;;;;;37.79;32.91;100769.07;1779038;80;21204;-92
2022/08/10 08:31:22;;;;;;;15.08;10.58;;;;;;;37.73;33.15;100770.44;1785051;80;20932;-92
2022/08/10 08:33:52;;;;;;;12.03;10.85;;;;;;;37.82;33.04;100765.26;1785103;80;20999;-94
2022/08/10 08:36:19;;;;;;;11.12;10.13;;;;;;;37.86;33.43;100766.89;1785352;80;20939;-92
2022/08/10 08:38:46;;;;;;;12.40;11.43;;;;;;;37.93;33.15;100766.92;1785972;80;21337;-91
2022/08/10 08:41:53;;;;;;;12.75;10.28;;;;;;;38.00;33.23;100770.77;1785147;80;21228;-92
2022/08/10 08:44:43;;;;;;;9.43;8.83;;;;;;;38.09;33.00;100768.34;1785439;80;20975;-93
2022/08/10 08:47:34;;;;;;;10.58;9.53;;;;;;;38.18;32.81;100757.64;1766688;80;21181;-90
2022/08/10 08:50:09;;;;;;;10.23;8.90;;;;;;;38.28;32.38;100761.76;1784109;80;20940;-92
2022/08/10 08:52:55;;;;;;;11.43;8.75;;;;;;;38.10;31.68;100752.98;1784562;80;20900;-90
2022/08/10 08:55:43;;;;;;;8.95;8.05;;;;;;;37.94;31.45;100747.20;1784927;80;21269;-92
2022/08/10 08:58:34;;;;;;;9.15;8.13;;;;;;;37.83;31.58;100750.46;1784915;80;20904;-92
2022/08/10 09:01:34;;;;;;;11.15;7.70;;;;;;;37.74;31.43;100750.17;1785047;80;20916;-92
2022/08/10 09:04:18;;;;;;;9.13;7.37;;;;;;;37.64;31.62;100738.37;1784908;80;20955;-92
2022/08/10 09:07:09;;;;;;;8.35;6.55;;;;;;;37.60;31.65;100743.58;1785098;80;20983;-93
2022/08/10 09:10:05;;;;;;;9.75;7.22;;;;;;;37.43;32.04;100741.02;1784671;80;21100;-94
2022/08/10 09:12:52;;;;;;;8.05;6.90;;;;;;;37.26;32.53;100733.57;1784691;80;20884;-93
2022/08/10 09:15:42;;;;;;;8.05;6.47;;;;;;;37.01;32.13;100728.23;1784825;80;21370;-92
2022/08/10 09:18:28;;;;;;;7.83;6.85;;;;;;;36.79;32.34;100725.66;1784745;80;20888;-92
2022/08/10 09:21:28;;;;;;;10.93;7.65;;;;;;;36.63;32.71;100723.38;1784686;80;20932;-94
2022/08/10 09:24:12;;;;;;;8.00;7.30;;;;;;;36.39;33.36;100722.91;1784972;80;21009;-91
2022/08/10 09:26:48;;;;;;;8.35;6.87;;;;;;;36.30;34.09;100723.92;1784976;80;22252;-94
2022/08/10 09:29:26;;;;;;;7.55;6.95;;;;;;;36.44;34.20;100722.11;1784921;80;20881;-95
2022/08/10 09:32:09;;;;;;;8.00;7.20;;;;;;;36.69;33.16;100720.15;1784356;80;21011;-93
2022/08/10 09:35:17;;;;;;;8.18;6.95;;;;;;;36.80;33.02;100710.92;1782938;80;26522;-92
2022/08/10 09:38:14;;;;;;;13.68;6.45;;;;;;;36.95;33.10;100712.89;1785364;80;21318;-91
2022/08/10 09:40:49;;;;;;;10.88;6.45;;;;;;;37.05;32.68;100716.23;1784859;80;20916;-94
2022/08/10 09:43:52;;;;;;;7.83;5.90;;;;;;;36.89;32.32;100712.61;1785334;80;21358;-92
2022/08/10 09:46:40;;;;;;;6.72;6.22;;;;;;;36.74;32.26;100716.07;1784465;80;21378;-95
2022/08/10 09:49:24;;;;;;;9.93;5.90;;;;;;;36.57;32.77;100705.81;1784848;80;21053;-91
2022/08/10 09:52:01;;;;;;;6.70;6.20;;;;;;;36.50;32.36;100712.88;1784816;80;21068;-93
2022/08/10 09:54:45;;;;;;;6.33;5.72;;;;;;;36.43;32.23;100705.45;1784980;80;20992;-96
2022/08/10 09:57:42;;;;;;;13.00;6.45;;;;;;;36.25;33.08;100704.78;1785003;80;20849;-94
2022/08/10 10:00:13;;;;;;;6.42;5.80;;;;;;;36.24;33.16;100706.39;1785079;80;20861;-90
2022/08/10 10:03:08;;;;;;;8.88;6.00;;;;;;;36.14;33.41;100714.52;1783084;80;20963;-94
2022/08/10 10:06:05;;;;;;;7.55;5.95;;;;;;;35.98;33.65;100711.63;1784785;80;21255;-93
2022/08/10 10:08:39;;;;;;;9.08;6.20;;;;;;;36.03;33.38;100708.11;1784876;80;20928;-92
2022/08/10 10:11:20;;;;;;;8.45;6.33;;;;;;;35.99;33.42;100705.62;1784890;80;20861;-94
2022/08/10 10:14:07;;;;;;;7.10;6.42;;;;;;;35.86;33.83;100708.22;1785099;80;20911;-92
2022/08/10 10:17:09;;;;;;;7.55;6.85;;;;;;;35.72;34.13;100704.28;1784846;80;20888;-93
2022/08/10 10:20:04;;;;;;;38.13;34.20;;;;;;;35.60;34.43;100706.59;1785681;80;21092;-94
2022/08/10 10:22:51;;;;;;;24.45;21.97;;;;;;;35.57;34.77;100702.98;1785330;80;20931;-93
2022/08/10 10:25:38;;;;;;;10.28;8.80;;;;;;;35.69;35.00;100702.89;1785269;80;21101;-95
2022/08/10 10:28:31;;;;;;;10.53;7.40;;;;;;;35.93;34.88;100697.94;1785144;80;20955;-95
2022/08/10 10:31:16;;;;;;;;;;;;;;;36.21;34.79;100701.47;1779923;80;21425;-94
2022/08/10 10:34:14;;;;;;;10.98;9.93;;;;;;;36.38;33.41;100702.70;1776168;80;21175;-95
2022/08/10 10:36:43;;;;;;;32.38;28.98;;;;;;;36.36;33.23;100698.86;1776203;80;20897;-93
2022/08/10 10:39:14;;;;;;;24.00;21.23;;;;;;;36.35;33.11;100697.73;1776072;80;20979;-93
2022/08/10 10:42:00;;;;;;;11.22;10.18;;;;;;;36.41;33.00;100699.43;1776435;80;21425;-94
2022/08/10 10:45:19;;;;;;;14.63;7.70;;;;;;;36.34;33.03;100699.66;1777995;80;20975;-95
2022/08/10 10:48:25;;;;;;;6.75;5.47;;;;;;;36.36;33.02;100700.77;1778813;80;21137;-96
2022/08/10 10:51:19;;;;;;;6.80;5.75;;;;;;;36.38;33.30;100699.97;1770954;79;20912;-91
2022/08/10 10:57:09;;;;;;;12.18;7.78;;;;;;;36.57;33.75;100703.90;1733770;79;21027;31
2022/08/10 11:00:07;;;;;;;7.58;6.87;;;;;;;36.89;33.52;100704.41;1667469;82;20976;-92
2022/08/10 11:03:15;;;;;;;6.85;5.97;;;;;;;37.17;32.90;100701.80;1686078;84;21131;-91
2022/08/10 11:06:07;;;;;;;8.55;6.90;;;;;;;37.54;32.89;100692.07;1710116;78;20933;-93
2022/08/10 11:08:38;;;;;;;8.30;5.30;;;;;;;37.84;32.08;100696.00;1712365;81;20942;-91
2022/08/10 11:11:27;;;;;;;6.42;5.60;;;;;;;38.05;31.87;100698.22;1726858;79;22744;-94
2022/08/10 11:14:31;;;;;;;8.83;5.50;;;;;;;38.22;31.10;100691.63;1709934;82;20947;-95
2022/08/10 11:17:21;;;;;;;6.87;5.35;;;;;;;38.18;30.97;100690.00;1709036;82;21201;-94
2022/08/10 11:20:11;;;;;;;10.13;6.10;;;;;;;38.22;30.92;100691.09;1708091;84;20947;-94
2022/08/10 11:23:17;;;;;;;32.98;26.37;;;;;;;38.25;30.46;100690.53;1707185;84;20931;-92
2022/08/10 11:25:47;;;;;;;23.38;21.12;;;;;;;38.18;30.29;100682.30;1707771;84;20907;-93
2022/08/10 11:28:25;;;;;;;10.53;8.03;;;;;;;37.91;30.37;100683.41;1707827;84;21405;-94
2022/08/10 11:31:08;;;;;;;12.10;6.22;;;;;;;37.59;30.61;100677.61;1707852;84;21275;-92
2022/08/10 11:33:54;;;;;;;11.50;6.45;;;;;;;37.30;31.40;100678.05;1707242;84;21421;-92
2022/08/10 11:36:48;;;;;;;8.65;6.83;;;;;;;37.09;31.68;100673.63;1707894;84;21061;-95
2022/08/10 11:39:53;;;;;;;11.90;6.80;;;;;;;36.81;31.99;100675.65;1707957;84;20892;-94
2022/08/10 11:42:41;;;;;;;7.80;7.03;;;;;;;36.43;32.17;100667.21;1707673;84;20986;-93
2022/08/10 11:45:21;;;;;;;10.53;7.42;;;;;;;36.17;32.84;100667.02;1707770;84;22179;-89
2022/08/10 11:48:11;;;;;;;7.87;7.20;;;;;;;35.99;33.72;100664.12;1719348;82;20887;-90
2022/08/10 11:50:51;;;;;;;9.20;6.55;;;;;;;35.95;33.94;100661.63;1727661;83;20934;-90
2022/08/10 11:53:51;;;;;;;9.30;7.28;;;;;;;35.89;34.46;100661.32;1677890;85;20931;-93
2022/08/10 11:56:28;;;;;;;7.62;6.90;;;;;;;35.77;34.08;100653.28;1677865;84;20851;-95
2022/08/10 12:01:40;;;;;;;12.37;6.67;;;;;;;35.46;34.44;100656.23;1735667;82;21499;-93